createdAt,value
2018-06-29T00:01:06.945Z,33.00
2018-06-29T00:03:39.330Z,26.20
2018-06-29T00:06:12.626Z,32.40
2018-06-29T00:08:46.153Z,30.40
2018-06-29T00:11:19.154Z,31.80
2018-06-29T00:13:51.469Z,28.80
2018-06-29T00:16:25.518Z,29.60
2018-06-29T00:18:58.428Z,32.40
2018-06-29T00:21:31.663Z,31.20
2018-06-29T00:24:04.543Z,31.80
2018-06-29T00:26:37.037Z,30.60
2018-06-29T00:29:09.839Z,30.20
2018-06-29T00:31:42.964Z,30.00
2018-06-29T00:34:15.820Z,30.00
2018-06-29T00:36:48.842Z,30.00
2018-06-29T00:39:21.649Z,29.60
2018-06-29T00:41:54.106Z,27.60
2018-06-29T00:44:27.249Z,30.00
2018-06-29T00:47:00.120Z,30.00
2018-06-29T00:49:33.000Z,32.40
2018-06-29T00:52:06.151Z,32.60
2018-06-29T00:54:39.156Z,26.80
2018-06-29T00:57:11.781Z,13.60
2018-06-29T00:59:44.956Z,30.20
2018-06-29T01:02:20.913Z,32.00
2018-06-29T01:04:53.715Z,31.00
2018-06-29T01:07:26.084Z,30.40
2018-06-29T01:09:59.431Z,35.60
2018-06-29T01:12:32.474Z,33.80
2018-06-29T01:15:05.649Z,32.80
2018-06-29T01:17:38.918Z,31.40
2018-06-29T01:20:11.356Z,34.00
2018-06-29T01:22:43.629Z,33.80
2018-06-29T01:25:16.796Z,30.60
2018-06-29T01:27:49.557Z,32.00
2018-06-29T01:30:22.245Z,32.20
2018-06-29T01:32:54.748Z,32.00
2018-06-29T01:35:27.623Z,44.20
2018-06-29T01:38:00.943Z,46.00
2018-06-29T01:40:33.702Z,50.00
2018-06-29T01:43:06.140Z,46.80
2018-06-29T01:45:39.393Z,46.60
2018-06-29T01:48:11.548Z,48.60
2018-06-29T01:50:44.668Z,46.00
2018-06-29T01:53:17.592Z,46.20
2018-06-29T01:55:50.553Z,46.40
2018-06-29T01:58:23.367Z,48.20
2018-06-29T02:00:56.518Z,53.60
2018-06-29T02:03:28.861Z,51.40
2018-06-29T02:06:02.213Z,49.80
2018-06-29T02:08:35.581Z,50.60
2018-06-29T02:11:09.045Z,53.20
2018-06-29T02:13:41.791Z,51.40
2018-06-29T02:16:14.600Z,48.00
2018-06-29T02:18:49.035Z,51.00
2018-06-29T02:21:22.086Z,55.20
2018-06-29T02:23:54.660Z,51.60
2018-06-29T02:26:27.837Z,52.20
2018-06-29T02:29:00.517Z,51.00
2018-06-29T02:31:32.899Z,51.60
2018-06-29T02:34:05.887Z,49.40
2018-06-29T02:36:38.378Z,49.80
2018-06-29T02:39:14.639Z,47.00
2018-06-29T02:41:46.609Z,51.20
2018-06-29T02:44:18.638Z,49.20
2018-06-29T02:46:51.106Z,48.60
2018-06-29T02:49:23.832Z,51.00
2018-06-29T02:51:57.043Z,45.00
2018-06-29T02:54:30.252Z,47.80
2018-06-29T02:57:03.562Z,47.80
2018-06-29T02:59:36.888Z,47.20
2018-06-29T03:02:09.583Z,48.20
2018-06-29T03:04:41.963Z,50.60
2018-06-29T03:07:15.018Z,49.00
2018-06-29T03:09:47.541Z,47.00
2018-06-29T03:12:19.920Z,45.80
2018-06-29T03:14:52.693Z,46.00
2018-06-29T03:17:26.357Z,45.00
2018-06-29T03:19:59.698Z,47.80
2018-06-29T03:22:32.347Z,49.40
2018-06-29T03:25:05.171Z,45.00
2018-06-29T03:27:38.453Z,49.60
2018-06-29T03:30:11.270Z,47.40
2018-06-29T03:32:44.262Z,44.60
2018-06-29T03:35:17.229Z,38.00
2018-06-29T03:37:50.566Z,43.20
2018-06-29T03:40:23.761Z,41.00
2018-06-29T03:42:56.340Z,40.00
2018-06-29T03:45:28.712Z,41.20
2018-06-29T03:48:01.900Z,39.20
2018-06-29T03:50:33.853Z,41.60
2018-06-29T03:53:07.294Z,37.00
2018-06-29T03:55:39.993Z,38.60
2018-06-29T03:58:12.426Z,38.80
2018-06-29T04:00:47.627Z,37.20
2018-06-29T04:03:20.320Z,35.00
2018-06-29T04:05:53.125Z,37.80
2018-06-29T04:08:26.237Z,37.20
2018-06-29T04:10:58.340Z,33.20
2018-06-29T04:13:31.394Z,32.80
2018-06-29T04:16:03.867Z,30.40
2018-06-29T04:18:36.469Z,30.80
2018-06-29T04:21:09.844Z,28.60
2018-06-29T04:23:43.110Z,29.00
2018-06-29T04:26:15.852Z,31.60
2018-06-29T04:28:49.054Z,27.80
2018-06-29T04:31:21.967Z,27.60
2018-06-29T04:47:49.858Z,28.00
2018-06-29T04:50:22.348Z,23.80
2018-06-29T04:52:55.208Z,28.40
2018-06-29T04:55:27.535Z,27.20
2018-06-29T04:58:05.169Z,30.00
2018-06-29T05:00:38.228Z,26.20
2018-06-29T05:03:11.397Z,28.60
2018-06-29T05:05:44.454Z,28.60
2018-06-29T05:08:17.151Z,28.20
2018-06-29T05:10:49.827Z,26.40
2018-06-29T05:13:22.984Z,28.40
2018-06-29T05:15:56.710Z,29.20
2018-06-29T05:18:29.636Z,28.00
2018-06-29T05:21:02.163Z,28.40
2018-06-29T05:23:36.975Z,30.00
2018-06-29T05:26:09.960Z,30.00
2018-06-29T05:28:42.270Z,29.80
2018-06-29T05:31:14.926Z,29.60
2018-06-29T05:33:47.418Z,30.40
2018-06-29T05:36:20.349Z,29.20
2018-06-29T05:38:52.761Z,30.00
2018-06-29T05:41:25.086Z,30.40
2018-06-29T05:43:57.452Z,31.00
2018-06-29T05:46:30.106Z,31.40
2018-06-29T05:49:03.180Z,31.80
2018-06-29T05:51:36.100Z,30.60
2018-06-29T05:54:09.749Z,26.00
2018-06-29T05:56:44.631Z,32.00
2018-06-29T05:59:17.528Z,31.20
2018-06-29T06:01:50.311Z,28.60
2018-06-29T06:04:22.871Z,29.00
2018-06-29T06:06:55.149Z,28.60
2018-06-29T06:09:27.617Z,29.80
2018-06-29T06:12:01.741Z,29.40
2018-06-29T06:14:37.380Z,32.00
2018-06-29T06:17:11.231Z,28.00
2018-06-29T06:19:52.862Z,29.40
2018-06-29T06:22:26.066Z,31.20
2018-06-29T06:24:59.439Z,33.00
2018-06-29T06:27:32.909Z,32.40
2018-06-29T06:30:05.594Z,28.60
2018-06-29T06:32:37.741Z,32.80
2018-06-29T06:35:12.189Z,32.00
2018-06-29T06:37:48.817Z,33.20
2018-06-29T06:40:22.036Z,31.00
2018-06-29T06:42:54.897Z,32.60
2018-06-29T06:45:27.713Z,34.20
2018-06-29T06:48:00.764Z,31.80
2018-06-29T06:50:33.255Z,34.00
2018-06-29T06:53:05.858Z,33.00
2018-06-29T06:55:38.430Z,34.00
2018-06-29T06:58:11.303Z,32.80
2018-06-29T07:00:44.439Z,32.60
2018-06-29T07:03:16.868Z,31.40
2018-06-29T07:05:49.788Z,28.80
2018-06-29T07:08:22.281Z,31.80
2018-06-29T07:10:54.895Z,31.80
2018-06-29T07:13:27.494Z,32.20
2018-06-29T07:16:00.026Z,34.40
2018-06-29T07:18:33.519Z,32.40
2018-06-29T07:21:06.657Z,32.00
2018-06-29T07:23:39.909Z,31.00
2018-06-29T07:26:12.653Z,31.20
2018-06-29T07:28:45.756Z,29.80
2018-06-29T07:31:18.231Z,31.00
2018-06-29T07:33:50.979Z,29.20
2018-06-29T07:36:25.230Z,26.60
2018-06-29T07:38:58.714Z,27.40
2018-06-29T07:41:32.056Z,30.00
2018-06-29T07:44:05.216Z,32.40
2018-06-29T07:46:38.808Z,30.80
2018-06-29T07:49:12.169Z,30.60
2018-06-29T07:51:45.325Z,31.80
2018-06-29T07:54:18.324Z,32.60
2018-06-29T07:56:51.588Z,36.40
2018-06-29T07:59:24.565Z,33.80
2018-06-29T08:01:58.090Z,34.60
2018-06-29T08:04:31.046Z,35.00
2018-06-29T08:07:04.287Z,28.40
2018-06-29T08:09:38.642Z,35.00
2018-06-29T08:12:12.162Z,35.40
2018-06-29T08:14:45.456Z,35.20
2018-06-29T08:17:18.871Z,37.20
2018-06-29T08:19:53.044Z,41.40
2018-06-29T08:22:26.660Z,42.00
2018-06-29T08:25:11.113Z,42.00
2018-06-29T08:27:44.951Z,42.00
2018-06-29T08:30:17.213Z,38.40
2018-06-29T08:32:50.566Z,40.40
2018-06-29T08:35:23.825Z,35.40
2018-06-29T08:37:57.691Z,38.60
2018-06-29T08:40:30.948Z,37.20
2018-06-29T08:43:04.682Z,35.40
2018-06-29T08:45:38.120Z,38.00
2018-06-29T08:48:11.636Z,32.40
2018-06-29T08:50:45.035Z,36.00
2018-06-29T08:53:18.191Z,35.60
2018-06-29T08:55:51.279Z,36.40
2018-06-29T08:58:25.847Z,33.60
2018-06-29T09:00:58.413Z,34.40
2018-06-29T09:03:33.704Z,32.60
2018-06-29T09:06:07.085Z,33.80
2018-06-29T09:08:40.764Z,33.60
2018-06-29T09:11:14.270Z,34.00
2018-06-29T09:13:47.454Z,33.20
2018-06-29T09:16:20.922Z,35.60
2018-06-29T09:18:54.504Z,34.20
2018-06-29T09:21:27.815Z,33.20
2018-06-29T09:24:01.162Z,42.00
2018-06-29T09:26:34.407Z,42.80
2018-06-29T09:29:07.740Z,42.20
2018-06-29T09:31:40.672Z,37.00
2018-06-29T09:34:14.112Z,33.20
2018-06-29T09:36:47.455Z,32.00
2018-06-29T09:39:21.098Z,33.60
2018-06-29T09:41:54.677Z,31.60
2018-06-29T09:44:28.117Z,29.60
2018-06-29T09:47:01.536Z,32.00
2018-06-29T09:49:34.598Z,31.40
2018-06-29T09:52:08.182Z,29.60
2018-06-29T09:54:41.122Z,29.60
2018-06-29T09:57:14.080Z,30.80
2018-06-29T09:59:47.223Z,29.00
2018-06-29T10:02:21.064Z,28.20
2018-06-29T10:04:54.281Z,28.40
2018-06-29T10:07:27.276Z,27.40
2018-06-29T10:10:03.167Z,26.80
2018-06-29T10:12:36.480Z,28.40
2018-06-29T10:15:09.933Z,26.00
2018-06-29T10:17:43.191Z,30.80
2018-06-29T10:20:16.750Z,26.60
2018-06-29T10:22:50.235Z,27.00
2018-06-29T10:25:25.498Z,21.40
2018-06-29T10:27:58.664Z,27.60
2018-06-29T10:30:32.605Z,26.80
2018-06-29T10:33:05.390Z,25.20
2018-06-29T10:35:38.904Z,23.60
2018-06-29T10:38:16.660Z,21.20
2018-06-29T10:40:50.425Z,21.60
2018-06-29T10:43:23.598Z,20.80
2018-06-29T10:46:08.470Z,18.80
2018-06-29T10:48:41.838Z,19.60
2018-06-29T10:51:15.089Z,22.40
2018-06-29T10:53:47.057Z,19.20
2018-06-29T10:56:20.363Z,18.60
2018-06-29T10:58:53.464Z,21.40
2018-06-29T11:01:26.808Z,18.40
2018-06-29T11:04:01.692Z,21.20
2018-06-29T11:06:35.128Z,20.00
2018-06-29T11:09:10.560Z,19.80
2018-06-29T11:11:43.801Z,20.40
2018-06-29T11:14:16.808Z,22.40
2018-06-29T11:16:50.202Z,22.20
2018-06-29T11:19:22.908Z,24.40
2018-06-29T11:21:56.370Z,27.40
2018-06-29T11:24:29.250Z,22.60
2018-06-29T11:27:02.394Z,25.80
2018-06-29T11:29:35.231Z,24.00
2018-06-29T11:32:08.080Z,26.20
2018-06-29T11:34:41.438Z,23.20
2018-06-29T11:37:15.237Z,20.80
2018-06-29T11:39:48.693Z,23.60
2018-06-29T11:42:22.292Z,15.60
2018-06-29T11:44:55.178Z,22.00
2018-06-29T11:47:28.414Z,20.00
2018-06-29T11:50:01.403Z,22.00
2018-06-29T11:52:34.864Z,21.80
2018-06-29T11:55:08.127Z,23.40
2018-06-29T11:57:40.964Z,21.00
2018-06-29T12:00:13.646Z,24.00
2018-06-29T12:02:46.918Z,21.40
2018-06-29T12:05:21.310Z,22.60
2018-06-29T12:07:55.127Z,22.00
2018-06-29T12:10:28.176Z,21.20
2018-06-29T12:13:01.469Z,25.40
2018-06-29T12:15:34.444Z,21.60
2018-06-29T12:18:07.629Z,19.80
2018-06-29T12:20:39.996Z,22.80
2018-06-29T12:23:13.364Z,23.40
2018-06-29T12:25:46.846Z,20.20
2018-06-29T12:28:20.316Z,26.20
2018-06-29T12:30:53.540Z,21.80
2018-06-29T12:33:26.723Z,26.40
2018-06-29T12:35:59.256Z,24.00
2018-06-29T12:38:32.147Z,22.80
2018-06-29T12:41:05.150Z,22.60
2018-06-29T12:43:38.313Z,23.00
2018-06-29T12:46:10.531Z,21.20
2018-06-29T12:48:43.975Z,13.20
2018-06-29T12:51:16.926Z,12.60
2018-06-29T12:53:50.039Z,16.40
2018-06-29T12:56:22.871Z,15.40
2018-06-29T12:58:56.148Z,17.20
2018-06-29T13:01:28.987Z,19.00
2018-06-29T13:04:01.444Z,18.20
2018-06-29T13:06:35.335Z,14.80
2018-06-29T13:09:10.677Z,17.60
2018-06-29T13:11:43.653Z,21.40
2018-06-29T13:14:17.166Z,20.60
2018-06-29T13:16:50.131Z,20.40
2018-06-29T13:19:23.304Z,18.40
2018-06-29T13:21:56.605Z,20.60
2018-06-29T13:24:29.749Z,22.40
2018-06-29T13:27:03.079Z,17.60
2018-06-29T13:29:36.209Z,17.80
2018-06-29T13:32:09.306Z,17.60
2018-06-29T13:34:42.616Z,17.20
2018-06-29T13:37:15.805Z,18.00
2018-06-29T13:39:49.355Z,17.00
2018-06-29T13:42:22.332Z,19.00
2018-06-29T13:44:55.456Z,18.00
2018-06-29T13:47:28.570Z,20.60
2018-06-29T13:50:01.583Z,19.00
2018-06-29T13:52:34.470Z,17.20
2018-06-29T13:55:07.098Z,21.40
2018-06-29T13:57:39.342Z,20.40
2018-06-29T14:00:12.739Z,21.20
2018-06-29T14:02:45.827Z,22.80
2018-06-29T14:05:19.191Z,20.60
2018-06-29T14:07:52.512Z,21.40
2018-06-29T14:10:25.723Z,20.60
2018-06-29T14:12:59.429Z,22.40
2018-06-29T14:15:33.035Z,24.00
2018-06-29T14:18:06.032Z,29.20
2018-06-29T14:20:39.463Z,26.80
2018-06-29T14:23:12.708Z,26.00
2018-06-29T14:25:45.883Z,28.60
2018-06-29T14:28:20.112Z,31.80
2018-06-29T14:30:53.529Z,29.40
2018-06-29T14:33:26.270Z,29.60
2018-06-29T14:35:59.291Z,28.60
2018-06-29T14:38:32.364Z,26.80
2018-06-29T14:41:05.802Z,26.60
2018-06-29T14:43:38.885Z,31.20
2018-06-29T14:46:11.674Z,35.00
2018-06-29T14:48:44.676Z,38.20
2018-06-29T14:51:19.652Z,37.80
2018-06-29T14:53:52.506Z,40.00
2018-06-29T14:56:25.467Z,36.00
2018-06-29T14:58:58.463Z,36.40
2018-06-29T15:01:31.479Z,38.00
2018-06-29T15:04:04.743Z,36.20
2018-06-29T15:06:38.174Z,39.00
2018-06-29T15:09:12.098Z,36.80
2018-06-29T15:11:44.495Z,35.80
2018-06-29T15:14:16.973Z,36.20
2018-06-29T15:16:50.135Z,38.00
2018-06-29T15:19:22.727Z,40.20
2018-06-29T15:21:55.183Z,38.40
2018-06-29T15:24:27.567Z,38.00
2018-06-29T15:27:00.045Z,33.20
2018-06-29T15:29:32.748Z,33.00
2018-06-29T15:32:05.421Z,33.60
2018-06-29T15:34:37.876Z,34.60
2018-06-29T15:37:10.683Z,32.40
2018-06-29T15:39:43.652Z,33.80
2018-06-29T15:42:16.980Z,33.80
2018-06-29T15:44:49.499Z,36.40
2018-06-29T15:47:22.057Z,32.20
2018-06-29T15:49:54.330Z,33.00
2018-06-29T15:52:27.441Z,32.20
2018-06-29T15:54:59.545Z,33.80
2018-06-29T15:57:31.998Z,35.80
2018-06-29T16:00:05.107Z,28.60
2018-06-29T16:02:37.616Z,30.00
2018-06-29T16:05:10.704Z,29.20
2018-06-29T16:07:43.113Z,30.00
2018-06-29T16:10:16.463Z,30.20
2018-06-29T16:12:49.413Z,29.40
2018-06-29T16:15:22.178Z,32.00
2018-06-29T16:17:54.643Z,30.00
2018-06-29T16:20:26.830Z,28.20
2018-06-29T16:22:59.940Z,27.20
2018-06-29T16:25:32.628Z,27.20
2018-06-29T16:28:05.219Z,24.20
2018-06-29T16:30:37.807Z,29.40
2018-06-29T16:33:09.748Z,24.40
2018-06-29T16:35:42.606Z,23.40
2018-06-29T16:38:16.097Z,29.00
2018-06-29T16:40:48.786Z,24.00
2018-06-29T16:43:21.379Z,25.20
2018-06-29T16:45:54.160Z,27.80
2018-06-29T16:48:26.752Z,25.80
2018-06-29T16:50:59.263Z,27.20
2018-06-29T16:53:31.917Z,22.80
2018-06-29T16:56:04.372Z,24.20
2018-06-29T16:58:37.691Z,25.00
2018-06-29T17:01:10.848Z,24.40
2018-06-29T17:03:43.674Z,27.00
2018-06-29T17:06:17.533Z,26.20
2018-06-29T17:08:50.271Z,22.00
2018-06-29T17:11:23.244Z,23.20
2018-06-29T17:13:56.565Z,23.60
2018-06-29T17:16:29.886Z,27.20
2018-06-29T17:19:02.912Z,25.40
2018-06-29T17:21:36.054Z,23.20
2018-06-29T17:24:09.427Z,22.80
2018-06-29T17:26:42.593Z,22.80
2018-06-29T17:29:15.719Z,22.20
2018-06-29T17:31:47.976Z,22.40
2018-06-29T17:34:21.012Z,24.00
2018-06-29T17:36:53.840Z,24.40
2018-06-29T17:39:26.082Z,22.40
2018-06-29T17:41:58.526Z,23.20
2018-06-29T17:44:31.318Z,25.60
2018-06-29T17:47:04.492Z,21.40
2018-06-29T17:49:37.638Z,23.20
2018-06-29T17:52:09.904Z,24.20
2018-06-29T17:54:43.080Z,25.40
2018-06-29T17:57:15.647Z,23.40
2018-06-29T17:59:48.703Z,26.60
2018-06-29T18:02:21.833Z,28.40
2018-06-29T18:04:54.729Z,19.40
2018-06-29T18:07:28.490Z,18.20
2018-06-29T18:10:01.227Z,18.80
2018-06-29T18:12:33.635Z,21.60
2018-06-29T18:15:06.259Z,13.40
2018-06-29T18:17:38.953Z,18.00
2018-06-29T18:20:11.591Z,14.40
2018-06-29T18:22:43.786Z,15.80
2018-06-29T18:25:16.490Z,15.40
2018-06-29T18:27:49.434Z,15.40
2018-06-29T18:30:22.567Z,16.80
2018-06-29T18:32:55.565Z,13.40
2018-06-29T18:35:28.222Z,12.00
2018-06-29T18:38:00.957Z,12.60
2018-06-29T18:40:33.260Z,16.00
2018-06-29T18:43:05.833Z,16.00
2018-06-29T18:45:38.798Z,15.60
2018-06-29T18:48:11.943Z,14.60
2018-06-29T18:50:45.034Z,18.00
2018-06-29T18:53:18.053Z,16.20
2018-06-29T18:55:50.694Z,13.60
2018-06-29T18:58:22.696Z,14.80
2018-06-29T19:00:55.585Z,15.40
2018-06-29T19:03:27.963Z,16.80
2018-06-29T19:06:00.664Z,12.60
2018-06-29T19:08:33.965Z,14.00
2018-06-29T19:11:07.153Z,15.20
2018-06-29T19:13:39.625Z,14.00
2018-06-29T19:16:12.542Z,12.00
2018-06-29T19:18:45.031Z,13.20
2018-06-29T19:21:17.527Z,14.20
2018-06-29T19:23:50.223Z,16.00
2018-06-29T19:26:23.329Z,14.00
2018-06-29T19:28:55.763Z,14.20
2018-06-29T19:31:28.083Z,15.00
2018-06-29T19:33:59.935Z,15.00
2018-06-29T19:36:33.126Z,14.80
2018-06-29T19:39:06.443Z,14.60
2018-06-29T19:41:39.374Z,13.60
2018-06-29T19:44:12.785Z,11.40
2018-06-29T19:46:45.722Z,14.20
2018-06-29T19:49:18.331Z,16.80
2018-06-29T19:51:51.193Z,13.00
2018-06-29T19:54:24.409Z,14.00
2018-06-29T19:56:57.188Z,12.00
2018-06-29T19:59:30.122Z,12.20
2018-06-29T20:02:02.341Z,14.80
2018-06-29T20:04:34.909Z,15.00
2018-06-29T20:07:07.251Z,15.60
2018-06-29T20:09:40.182Z,17.60
2018-06-29T20:12:13.225Z,17.40
2018-06-29T20:14:45.963Z,16.60
2018-06-29T20:17:18.786Z,15.80
2018-06-29T20:19:51.403Z,15.40
2018-06-29T20:22:24.162Z,13.40
2018-06-29T20:24:56.755Z,16.00
2018-06-29T20:27:29.249Z,16.00
2018-06-29T20:30:02.016Z,15.00
2018-06-29T20:32:34.027Z,19.00
2018-06-29T20:35:07.245Z,16.60
2018-06-29T20:37:40.016Z,16.20
2018-06-29T20:40:13.112Z,16.00
2018-06-29T20:42:45.986Z,15.60
2018-06-29T20:45:18.557Z,18.60
2018-06-29T20:47:50.907Z,23.60
2018-06-29T20:50:23.459Z,16.40
2018-06-29T20:52:55.815Z,19.40
2018-06-29T20:55:28.391Z,20.80
2018-06-29T20:58:01.494Z,21.60
2018-06-29T21:00:34.088Z,18.20
2018-06-29T21:03:06.570Z,21.00
2018-06-29T21:05:40.313Z,18.60
2018-06-29T21:08:13.145Z,23.60
2018-06-29T21:10:46.466Z,19.40
2018-06-29T21:13:19.118Z,23.20
2018-06-29T21:15:51.911Z,20.80
2018-06-29T21:18:24.807Z,23.60
2018-06-29T21:22:00.496Z,18.00
2018-06-29T21:24:32.949Z,22.20
2018-06-29T21:27:05.661Z,17.80
2018-06-29T21:29:38.779Z,18.40
2018-06-29T21:32:11.020Z,16.80
2018-06-29T21:34:43.738Z,18.40
2018-06-29T21:37:16.088Z,18.20
2018-06-29T21:39:49.075Z,18.20
2018-06-29T21:42:21.638Z,19.20
2018-06-29T21:44:54.790Z,20.20
2018-06-29T21:47:27.884Z,20.80
2018-06-29T21:50:00.814Z,22.00
2018-06-29T21:52:34.161Z,21.80
2018-06-29T21:55:06.917Z,23.20
2018-06-29T21:57:41.100Z,23.20
2018-06-29T22:00:14.874Z,23.20
2018-06-29T22:02:48.078Z,26.80
2018-06-29T22:05:21.624Z,23.00
2018-06-29T22:07:54.388Z,26.00
2018-06-29T22:10:28.507Z,22.40
2018-06-29T22:13:00.986Z,24.00
2018-06-29T22:15:34.048Z,24.80
2018-06-29T22:18:07.524Z,27.80
2018-06-29T22:20:40.482Z,29.80
2018-06-29T22:23:13.480Z,25.60
2018-06-29T22:25:46.538Z,23.00
2018-06-29T22:28:19.068Z,25.60
2018-06-29T22:30:51.934Z,22.40
2018-06-29T22:33:23.868Z,22.80
2018-06-29T22:35:56.511Z,21.80
2018-06-29T22:38:28.910Z,22.00
2018-06-29T22:41:02.249Z,20.60
2018-06-29T22:43:34.410Z,22.00
2018-06-29T22:46:06.732Z,17.80
2018-06-29T22:48:39.656Z,21.60
2018-06-29T22:51:11.885Z,22.00
2018-06-29T22:53:44.088Z,21.00
2018-06-29T22:56:16.904Z,21.60
2018-06-29T22:58:49.026Z,20.00
2018-06-29T23:01:21.687Z,18.60
2018-06-29T23:03:54.956Z,20.40
2018-06-29T23:06:28.116Z,21.00
2018-06-29T23:09:00.463Z,20.20
2018-06-29T23:11:33.351Z,20.20
2018-06-29T23:14:05.712Z,21.80
2018-06-29T23:16:37.940Z,21.40
2018-06-29T23:19:10.717Z,17.40
2018-06-29T23:21:42.969Z,17.00
2018-06-29T23:24:15.812Z,21.60
2018-06-29T23:26:48.159Z,19.40
2018-06-29T23:29:21.262Z,20.40
2018-06-29T23:31:54.344Z,22.00
2018-06-29T23:34:26.696Z,20.40
2018-06-29T23:36:59.551Z,22.60
2018-06-29T23:39:32.102Z,22.60
2018-06-29T23:42:05.213Z,20.00
2018-06-29T23:44:38.159Z,17.40
2018-06-29T23:47:11.663Z,20.60
2018-06-29T23:49:44.932Z,17.60
2018-06-29T23:52:18.367Z,21.00
2018-06-29T23:54:51.624Z,21.40
2018-06-29T23:57:24.436Z,22.40
2018-06-29T23:59:57.049Z,20.00
